Time;durP1;ratioP1;P1;durP2;ratioP2;P2;SDS_P1;SDS_P2;PMS_P1;PMS_P2;Temp;Humidity;BMP_temperature;BMP_pressure;BME280_temperature;BME280_humidity;BME280_pressure;Samples;Min_cycle;Max_cycle;Signal;HPM_P1;HPM_P2
2022/09/26 00:01:16;;;;;;;5.15;0.93;;;12.50;99.90;;;;;;5036005;28;20045;-69
2022/09/26 00:03:47;;;;;;;2.47;0.60;;;12.50;99.90;;;;;;5035328;28;20526;-69
2022/09/26 00:06:15;;;;;;;6.10;0.45;;;12.50;99.90;;;;;;5038763;28;20481;-70
2022/09/26 00:08:40;;;;;;;3.40;0.75;;;12.40;99.90;;;;;;5036251;28;20065;-69
2022/09/26 00:11:07;;;;;;;4.28;0.82;;;12.40;99.90;;;;;;5037612;28;20119;-69
2022/09/26 00:13:35;;;;;;;2.35;0.43;;;12.40;99.90;;;;;;5036232;28;20397;-68
2022/09/26 00:16:01;;;;;;;1.75;0.50;;;12.40;99.90;;;;;;5036242;28;20046;-69
2022/09/26 00:18:27;;;;;;;2.03;0.60;;;12.40;99.90;;;;;;5036966;28;20032;-68
2022/09/26 00:20:52;;;;;;;5.32;0.88;;;12.40;99.90;;;;;;5035175;28;20055;-67
2022/09/26 00:23:18;;;;;;;5.68;0.73;;;12.40;99.90;;;;;;5037196;28;20041;-69
2022/09/26 00:25:49;;;;;;;1.00;0.43;;;12.40;99.90;;;;;;5034616;28;20483;-67
2022/09/26 00:28:15;;;;;;;1.98;0.82;;;12.40;99.90;;;;;;5033296;28;20030;-69
2022/09/26 00:30:43;;;;;;;2.28;0.80;;;12.30;99.90;;;;;;5037953;28;20098;-68
2022/09/26 00:33:09;;;;;;;4.13;0.65;;;12.30;99.90;;;;;;5034796;28;20064;-68
2022/09/26 00:35:35;;;;;;;2.60;0.75;;;12.30;99.90;;;;;;5036649;28;20045;-68
2022/09/26 00:38:01;;;;;;;1.10;0.38;;;12.30;99.90;;;;;;5036268;28;20107;-67
2022/09/26 00:40:26;;;;;;;1.02;0.50;;;12.30;99.90;;;;;;5034410;28;20025;-68
2022/09/26 00:42:55;;;;;;;2.35;0.68;;;12.30;99.90;;;;;;5035950;28;20699;-70
2022/09/26 00:45:24;;;;;;;1.80;0.50;;;12.30;99.90;;;;;;5032973;28;20025;-69
2022/09/26 00:47:58;;;;;;;7.53;0.68;;;12.30;99.90;;;;;;5033923;28;20038;-68
2022/09/26 00:50:29;;;;;;;3.22;0.47;;;12.30;99.90;;;;;;5037004;28;20029;-69
2022/09/26 00:53:03;;;;;;;3.40;0.70;;;12.30;99.90;;;;;;5033737;28;20030;-68
2022/09/26 00:55:35;;;;;;;0.57;0.30;;;12.30;99.90;;;;;;5035912;28;20033;-67
2022/09/26 00:58:10;;;;;;;3.28;1.20;;;12.40;99.90;;;;;;5035752;28;20141;-68
2022/09/26 01:00:40;;;;;;;4.03;0.45;;;12.30;99.90;;;;;;5036321;28;20033;-68
2022/09/26 01:03:06;;;;;;;5.63;0.47;;;12.40;99.90;;;;;;5034734;28;20037;-69
2022/09/26 01:05:34;;;;;;;2.35;0.73;;;12.40;99.90;;;;;;5035891;28;20038;-69
2022/09/26 01:08:01;;;;;;;4.47;0.70;;;12.40;99.90;;;;;;5037754;28;20033;-69
2022/09/26 01:10:28;;;;;;;1.42;0.40;;;12.40;99.90;;;;;;5036199;28;20032;-69
2022/09/26 01:12:56;;;;;;;7.30;0.98;;;12.30;99.90;;;;;;5034706;28;20029;-69
2022/09/26 01:15:22;;;;;;;1.63;0.40;;;12.40;99.90;;;;;;5036634;28;20049;-70
2022/09/26 01:17:49;;;;;;;2.53;0.50;;;12.30;99.90;;;;;;5033973;28;20858;-69
2022/09/26 01:20:51;;;;;;;2.40;0.88;;;12.30;99.90;;;;;;5036011;28;20078;-68
2022/09/26 01:23:26;;;;;;;7.93;0.73;;;12.30;99.90;;;;;;5030365;28;20120;-68
2022/09/26 01:26:25;;;;;;;1.95;0.45;;;12.30;99.90;;;;;;5036205;28;20116;-69
2022/09/26 01:29:24;;;;;;;3.13;1.00;;;12.20;99.90;;;;;;5031915;28;20111;-68
2022/09/26 01:35:20;;;;;;;4.25;0.82;;;12.20;99.90;;;;;;5032807;28;20048;-69
2022/09/26 01:38:16;;;;;;;1.83;0.82;;;12.30;99.90;;;;;;5050988;28;20106;-68
2022/09/26 01:41:18;;;;;;;4.32;1.20;;;12.20;99.90;;;;;;5029760;28;20071;-70
2022/09/26 01:44:24;;;;;;;4.95;0.90;;;12.20;99.90;;;;;;5029725;28;20053;-70
2022/09/26 01:47:16;;;;;;;4.43;1.08;;;12.20;99.90;;;;;;5031146;28;20132;-68
2022/09/26 01:50:05;;;;;;;2.80;0.85;;;12.30;99.90;;;;;;5030987;28;20025;-69
2022/09/26 01:52:38;;;;;;;5.05;0.70;;;12.20;99.90;;;;;;5033866;28;20177;-68
2022/09/26 01:55:22;;;;;;;3.47;0.90;;;12.30;99.90;;;;;;5033816;28;20048;-68
2022/09/26 01:57:55;;;;;;;1.90;0.60;;;12.30;99.90;;;;;;5033395;28;20037;-67
2022/09/26 02:00:21;;;;;;;4.07;1.30;;;12.20;99.90;;;;;;5034396;28;20116;-69
2022/09/26 02:02:48;;;;;;;5.22;0.70;;;12.20;99.90;;;;;;5036289;28;20128;-69
2022/09/26 02:05:37;;;;;;;5.00;0.70;;;12.10;99.90;;;;;;5032606;28;20468;-68
2022/09/26 02:08:10;;;;;;;3.20;0.75;;;12.10;99.90;;;;;;5033887;28;20047;-69
2022/09/26 02:10:45;;;;;;;2.33;0.70;;;12.10;99.90;;;;;;5036435;28;20037;-70
2022/09/26 02:13:16;;;;;;;4.00;1.02;;;12.00;99.90;;;;;;5036492;28;20037;-68
2022/09/26 02:15:46;;;;;;;5.60;0.90;;;11.90;99.90;;;;;;5029356;28;20049;-69
2022/09/26 02:18:20;;;;;;;2.47;0.65;;;11.90;99.90;;;;;;5028106;28;20091;-69
2022/09/26 02:20:53;;;;;;;9.52;1.00;;;11.90;99.90;;;;;;5030569;28;20037;-69
2022/09/26 02:23:19;;;;;;;4.45;0.75;;;11.80;99.90;;;;;;5035861;28;20766;-69
2022/09/26 02:25:45;;;;;;;7.00;1.20;;;11.80;99.90;;;;;;5034683;28;20136;-69
2022/09/26 02:28:10;;;;;;;4.78;1.00;;;11.80;99.90;;;;;;5032716;28;20754;-69
2022/09/26 02:30:38;;;;;;;3.28;1.00;;;11.80;99.90;;;;;;5036336;28;20033;-69
2022/09/26 02:33:04;;;;;;;3.78;1.17;;;11.70;99.90;;;;;;5034252;28;20036;-69
2022/09/26 02:38:13;;;;;;;5.35;1.10;;;11.60;99.90;;;;;;5030541;28;20225;-68
2022/09/26 02:41:12;;;;;;;2.55;1.23;;;11.70;99.90;;;;;;5035174;28;20204;-68
2022/09/26 02:43:53;;;;;;;2.42;0.90;;;11.70;99.90;;;;;;5012390;28;20083;-68
2022/09/26 02:46:44;;;;;;;6.43;1.45;;;11.60;99.90;;;;;;5033164;28;20053;-69
2022/09/26 02:49:34;;;;;;;2.65;1.30;;;11.50;99.90;;;;;;5033885;28;20041;-68
2022/09/26 02:52:22;;;;;;;3.13;1.30;;;11.50;99.90;;;;;;5038963;28;20390;-72
2022/09/26 02:54:58;;;;;;;4.88;1.20;;;11.50;99.90;;;;;;5035702;28;20082;-65
2022/09/26 02:58:08;;;;;;;5.32;1.20;;;11.50;99.90;;;;;;5038810;28;20660;-68
2022/09/26 03:01:23;;;;;;;4.05;1.20;;;11.50;99.90;;;;;;5039203;28;20041;-69
2022/09/26 03:04:00;;;;;;;3.90;1.08;;;11.50;99.90;;;;;;5011191;28;20563;-68
2022/09/26 03:06:32;;;;;;;8.30;1.42;;;11.50;99.90;;;;;;5038052;28;20037;-70
2022/09/26 03:09:00;;;;;;;2.13;0.88;;;11.50;99.90;;;;;;5038840;28;20117;-70
2022/09/26 03:11:27;;;;;;;3.53;1.10;;;11.50;99.90;;;;;;5037981;28;20445;-69
2022/09/26 03:13:55;;;;;;;9.38;1.70;;;11.50;99.90;;;;;;5037678;28;20030;-68
2022/09/26 03:16:22;;;;;;;8.50;1.45;;;11.50;99.90;;;;;;5038666;28;20037;-68
2022/09/26 03:19:02;;;;;;;4.10;1.05;;;11.50;99.90;;;;;;5061696;28;20342;-67
2022/09/26 03:21:28;;;;;;;2.28;1.00;;;11.50;99.90;;;;;;5036967;28;20036;-68
2022/09/26 03:23:56;;;;;;;10.73;2.25;;;11.50;99.90;;;;;;5037667;28;20055;-68
2022/09/26 03:26:25;;;;;;;7.30;1.40;;;11.50;99.90;;;;;;5037083;28;20045;-67
2022/09/26 03:28:52;;;;;;;3.38;1.25;;;11.60;99.90;;;;;;5038249;28;20032;-69
2022/09/26 03:31:23;;;;;;;4.80;1.30;;;11.60;99.90;;;;;;5036810;28;20425;-70
2022/09/26 03:33:49;;;;;;;4.75;1.20;;;11.50;99.90;;;;;;5037936;28;20029;-68
2022/09/26 03:36:15;;;;;;;1.80;0.95;;;11.50;99.90;;;;;;5060919;28;20037;-68
2022/09/26 03:38:40;;;;;;;12.35;1.20;;;11.50;99.90;;;;;;5039754;28;20036;-69
2022/09/26 03:41:08;;;;;;;2.55;1.50;;;11.50;99.90;;;;;;5035702;28;20046;-69
2022/09/26 03:43:34;;;;;;;5.63;1.17;;;11.50;99.90;;;;;;5032000;28;20026;-69
2022/09/26 03:46:04;;;;;;;2.63;1.05;;;11.60;99.90;;;;;;5035785;28;20037;-70
2022/09/26 03:48:31;;;;;;;2.88;1.02;;;11.50;99.90;;;;;;5037428;28;20108;-69
2022/09/26 03:51:07;;;;;;;7.22;1.48;;;11.50;99.90;;;;;;5034977;28;20406;-67
2022/09/26 03:53:34;;;;;;;3.58;1.25;;;11.50;99.90;;;;;;5030098;28;20029;-68
2022/09/26 03:56:09;;;;;;;7.28;1.15;;;11.50;99.90;;;;;;5034879;28;20029;-68
2022/09/26 03:58:35;;;;;;;5.10;1.35;;;11.50;99.90;;;;;;5032152;28;20033;-70
2022/09/26 04:01:19;;;;;;;3.30;1.20;;;11.50;99.90;;;;;;5039039;28;20044;-69
2022/09/26 04:03:46;;;;;;;3.92;1.05;;;11.50;99.90;;;;;;5036770;28;20139;-69
2022/09/26 04:06:14;;;;;;;5.13;1.00;;;11.50;99.90;;;;;;5035974;28;20029;-69
2022/09/26 04:08:41;;;;;;;2.97;0.98;;;11.50;99.90;;;;;;5039241;28;20039;-70
2022/09/26 04:11:11;;;;;;;6.30;1.50;;;11.50;99.90;;;;;;5035465;28;20125;-70
2022/09/26 04:13:37;;;;;;;2.15;1.05;;;11.50;99.90;;;;;;5030053;28;20069;-68
2022/09/26 04:16:04;;;;;;;4.95;1.23;;;11.50;99.90;;;;;;5038771;28;20535;-68
2022/09/26 04:18:30;;;;;;;3.25;1.80;;;11.50;99.90;;;;;;5035463;28;20045;-69
2022/09/26 04:21:07;;;;;;;2.65;0.88;;;11.50;99.90;;;;;;5038072;28;20037;-68
2022/09/26 04:23:35;;;;;;;7.07;1.20;;;11.50;99.90;;;;;;5029814;28;20026;-69
2022/09/26 04:26:14;;;;;;;5.32;1.10;;;11.50;99.90;;;;;;5031393;28;20418;-69
2022/09/26 04:28:40;;;;;;;5.60;1.17;;;11.50;99.90;;;;;;5033099;28;20033;-67
2022/09/26 04:31:07;;;;;;;4.35;0.90;;;11.50;99.90;;;;;;5035067;28;20124;-67
2022/09/26 04:33:33;;;;;;;3.05;0.95;;;11.40;99.90;;;;;;5038090;28;20032;-68
2022/09/26 04:36:00;;;;;;;8.07;0.88;;;11.40;99.90;;;;;;5036164;28;20129;-68
2022/09/26 04:38:31;;;;;;;4.88;0.80;;;11.40;99.90;;;;;;5038034;28;20512;-68
2022/09/26 04:40:57;;;;;;;;;;;11.40;99.90;;;;;;5036435;28;20038;-69
2022/09/26 04:43:23;;;;;;;1.63;0.80;;;11.40;99.90;;;;;;5037245;28;20109;-69
2022/09/26 04:45:48;;;;;;;4.30;1.05;;;11.40;99.90;;;;;;5036684;28;20517;-68
2022/09/26 04:48:14;;;;;;;5.85;1.00;;;11.40;99.90;;;;;;5035951;28;20408;-71
2022/09/26 04:50:39;;;;;;;4.43;1.45;;;11.30;99.90;;;;;;5036434;28;20168;-69
2022/09/26 04:53:05;;;;;;;3.55;1.00;;;11.30;99.90;;;;;;5032945;28;20094;-67
2022/09/26 04:55:32;;;;;;;4.32;1.40;;;11.20;99.90;;;;;;5034390;28;20540;-68
2022/09/26 04:57:57;;;;;;;5.57;1.10;;;11.20;99.90;;;;;;5036347;28;20029;-69
2022/09/26 05:00:23;;;;;;;3.40;1.23;;;11.20;99.90;;;;;;5035725;28;20036;-68
2022/09/26 05:02:48;;;;;;;3.67;1.00;;;11.20;99.90;;;;;;5036410;28;20049;-67
2022/09/26 05:05:14;;;;;;;3.63;1.10;;;11.10;99.90;;;;;;5036333;28;20060;-68
2022/09/26 05:07:41;;;;;;;4.47;1.58;;;11.10;99.90;;;;;;5035471;28;20120;-69
2022/09/26 05:10:09;;;;;;;2.05;0.75;;;11.10;99.90;;;;;;5037331;28;20443;-68
2022/09/26 05:12:38;;;;;;;4.85;0.90;;;11.00;99.90;;;;;;5033055;28;20478;-70
2022/09/26 05:15:05;;;;;;;10.90;1.65;;;11.00;99.90;;;;;;5037308;28;20090;-69
2022/09/26 05:17:31;;;;;;;2.55;0.90;;;11.00;99.90;;;;;;5034284;28;20567;-68
2022/09/26 05:19:59;;;;;;;14.15;1.42;;;11.00;99.90;;;;;;5037722;28;20102;-68
2022/09/26 05:22:29;;;;;;;2.45;0.73;;;11.00;99.90;;;;;;5033875;28;20583;-69
2022/09/26 05:27:38;;;;;;;5.90;1.25;;;10.90;99.90;;;;;;5032828;28;20497;-68
2022/09/26 05:30:04;;;;;;;2.65;0.90;;;10.90;99.90;;;;;;5031029;28;20049;-68
2022/09/26 05:32:30;;;;;;;2.67;1.00;;;10.90;99.90;;;;;;5035319;28;20497;-68
2022/09/26 05:34:56;;;;;;;5.53;0.90;;;10.90;99.90;;;;;;5033146;28;20044;-68
2022/09/26 05:37:21;;;;;;;5.68;0.95;;;10.90;99.90;;;;;;5034747;28;20049;-68
2022/09/26 05:42:31;;;;;;;4.03;1.10;;;10.90;99.90;;;;;;5029980;28;20044;-68
2022/09/26 05:45:00;;;;;;;3.72;1.60;;;10.90;99.90;;;;;;5029885;28;20037;-69
2022/09/26 05:47:27;;;;;;;4.40;0.88;;;10.80;99.90;;;;;;5031853;28;20119;-68
2022/09/26 05:49:53;;;;;;;5.35;0.90;;;10.80;99.90;;;;;;5031679;28;20056;-68
2022/09/26 05:52:21;;;;;;;2.25;0.95;;;10.80;99.90;;;;;;5035865;28;20435;-68
2022/09/26 05:54:47;;;;;;;6.47;1.05;;;10.80;99.90;;;;;;5033216;28;20610;-69
2022/09/26 05:57:13;;;;;;;4.38;0.98;;;10.80;99.90;;;;;;5032385;28;20142;-68
2022/09/26 05:59:38;;;;;;;7.88;1.15;;;10.80;99.90;;;;;;5035255;28;20041;-68
2022/09/26 06:02:05;;;;;;;3.72;0.93;;;10.90;99.90;;;;;;5033640;28;20048;-68
2022/09/26 06:04:31;;;;;;;3.00;0.73;;;10.90;99.90;;;;;;5034865;28;20120;-69
2022/09/26 06:06:57;;;;;;;3.17;1.00;;;10.90;99.90;;;;;;5033412;28;20616;-69
2022/09/26 06:09:22;;;;;;;2.22;1.02;;;10.90;99.90;;;;;;5034857;28;20416;-68
2022/09/26 06:11:48;;;;;;;7.70;1.20;;;10.90;99.90;;;;;;5034883;28;20045;-68
2022/09/26 06:14:13;;;;;;;8.38;0.88;;;11.00;99.90;;;;;;5034765;28;20071;-68
2022/09/26 06:16:39;;;;;;;2.80;0.93;;;11.00;99.90;;;;;;5036255;28;20025;-68
2022/09/26 06:19:04;;;;;;;3.42;0.98;;;11.00;99.90;;;;;;5033081;28;20424;-68
2022/09/26 06:21:30;;;;;;;2.40;0.70;;;11.00;99.90;;;;;;5038351;28;20041;-68
2022/09/26 06:23:56;;;;;;;5.75;1.20;;;11.10;99.90;;;;;;5035546;28;20040;-67
2022/09/26 06:26:23;;;;;;;2.15;0.73;;;11.10;99.90;;;;;;5040675;28;20032;-71
2022/09/26 06:28:58;;;;;;;4.82;0.82;;;11.10;99.90;;;;;;5036767;28;20034;-67
2022/09/26 06:31:24;;;;;;;1.83;0.70;;;11.10;99.90;;;;;;5037692;28;20041;-68
2022/09/26 06:33:52;;;;;;;2.92;0.73;;;11.20;99.90;;;;;;5031777;28;20210;-69
2022/09/26 06:36:17;;;;;;;7.18;1.15;;;11.10;99.90;;;;;;5036963;28;20120;-67
2022/09/26 06:38:43;;;;;;;3.53;1.02;;;11.20;99.90;;;;;;5039940;28;20557;-69
2022/09/26 06:41:09;;;;;;;3.25;1.15;;;11.30;99.90;;;;;;5037515;28;20048;-67
2022/09/26 06:43:34;;;;;;;1.90;0.65;;;11.30;99.90;;;;;;5037786;28;20060;-69
2022/09/26 06:46:00;;;;;;;1.52;0.68;;;11.40;99.90;;;;;;5040294;28;20108;-70
2022/09/26 06:48:26;;;;;;;2.40;0.70;;;11.40;99.90;;;;;;5036953;28;20033;-67
2022/09/26 06:50:53;;;;;;;1.75;0.80;;;11.40;99.90;;;;;;5040560;28;20118;-68
2022/09/26 06:53:19;;;;;;;5.13;1.02;;;11.40;99.90;;;;;;5035449;28;20600;-67
2022/09/26 06:55:45;;;;;;;5.65;1.10;;;11.50;99.90;;;;;;5039805;28;20107;-68
2022/09/26 06:58:10;;;;;;;1.13;0.57;;;11.50;99.90;;;;;;5037982;28;20067;-67
2022/09/26 07:00:36;;;;;;;0.95;0.52;;;11.50;99.90;;;;;;5037901;28;20037;-68
2022/09/26 07:03:01;;;;;;;4.70;0.95;;;11.60;99.90;;;;;;5037823;28;20033;-68
2022/09/26 07:05:27;;;;;;;3.10;1.33;;;11.60;99.90;;;;;;5036368;28;20392;-68
2022/09/26 07:07:54;;;;;;;1.77;0.73;;;11.60;99.90;;;;;;5040331;28;20037;-68
2022/09/26 07:10:20;;;;;;;2.75;0.90;;;11.60;99.90;;;;;;5036525;28;20044;-70
2022/09/26 07:12:47;;;;;;;1.30;0.60;;;11.60;99.90;;;;;;5039156;28;20052;-68
2022/09/26 07:15:15;;;;;;;4.63;0.77;;;11.60;99.90;;;;;;5036570;28;20025;-69
2022/09/26 07:17:43;;;;;;;3.50;0.73;;;11.60;99.90;;;;;;5038629;28;20036;-69
2022/09/26 07:20:17;;;;;;;5.22;0.82;;;11.60;99.90;;;;;;5037670;28;20029;-67
2022/09/26 07:22:43;;;;;;;3.85;0.77;;;11.60;99.90;;;;;;5062383;28;20044;-69
2022/09/26 07:25:10;;;;;;;7.25;1.00;;;11.60;99.90;;;;;;5038961;28;20033;-67
2022/09/26 07:27:37;;;;;;;2.92;0.73;;;11.60;99.90;;;;;;5037728;28;20045;-68
2022/09/26 07:30:05;;;;;;;2.70;0.70;;;11.60;99.90;;;;;;5037039;28;20072;-69
2022/09/26 07:32:31;;;;;;;3.75;0.77;;;11.60;99.90;;;;;;5037248;28;20040;-68
2022/09/26 07:34:58;;;;;;;5.82;0.70;;;11.60;99.90;;;;;;5035237;28;20025;-68
2022/09/26 07:37:28;;;;;;;3.67;1.25;;;11.60;99.90;;;;;;5031065;28;20103;-68
2022/09/26 07:39:53;;;;;;;3.55;0.70;;;11.60;99.90;;;;;;5030137;28;20036;-69
2022/09/26 07:42:20;;;;;;;7.78;1.10;;;11.60;99.90;;;;;;5032791;28;20037;-67
2022/09/26 07:44:46;;;;;;;3.58;0.73;;;11.70;99.90;;;;;;5033071;28;20114;-69
2022/09/26 07:50:15;;;;;;;2.70;1.05;;;11.80;99.90;;;;;;5028771;22;20076;-71
2022/09/26 07:52:46;;;;;;;7.20;0.95;;;11.80;99.90;;;;;;5009749;28;20113;-71
2022/09/26 07:55:18;;;;;;;5.38;0.77;;;11.80;99.90;;;;;;5009700;28;20046;-70
2022/09/26 07:57:45;;;;;;;2.78;0.70;;;11.80;99.90;;;;;;5002179;28;20042;-70
2022/09/26 08:00:15;;;;;;;5.95;1.48;;;11.80;99.90;;;;;;4988106;28;20042;-70
2022/09/26 08:02:44;;;;;;;;;;;11.80;99.90;;;;;;4990498;28;20404;-70
2022/09/26 08:05:10;;;;;;;5.05;0.80;;;11.90;99.90;;;;;;4989754;28;19917;-70
2022/09/26 08:07:36;;;;;;;2.50;0.85;;;12.00;99.90;;;;;;4980403;28;20057;-70
2022/09/26 08:10:07;;;;;;;2.75;0.75;;;12.00;99.90;;;;;;4985669;28;20089;-70
2022/09/26 08:12:37;;;;;;;2.22;0.70;;;12.10;99.90;;;;;;4987938;28;20027;-70
2022/09/26 08:15:05;;;;;;;;;;;12.10;99.90;;;;;;4986706;28;20506;-70
2022/09/26 08:17:32;;;;;;;5.43;0.98;;;12.10;99.90;;;;;;4988316;28;19924;-70
2022/09/26 08:19:59;;;;;;;2.83;0.70;;;12.00;99.90;;;;;;4987813;28;20053;-70
2022/09/26 08:22:24;;;;;;;14.18;1.83;;;11.90;99.90;;;;;;4989363;28;20041;-70
2022/09/26 08:24:50;;;;;;;8.70;1.20;;;11.90;99.90;;;;;;4973996;28;20039;-70
2022/09/26 08:27:17;;;;;;;3.15;0.80;;;11.90;99.90;;;;;;4973147;28;20734;-70
2022/09/26 08:29:48;;;;;;;7.57;0.88;;;11.80;99.90;;;;;;4972497;28;20418;-71
2022/09/26 08:32:17;;;;;;;4.13;0.82;;;11.80;99.90;;;;;;4973997;28;20034;-70
2022/09/26 08:34:43;;;;;;;2.38;1.02;;;11.80;99.90;;;;;;4976797;28;20494;-70
2022/09/26 08:37:10;;;;;;;3.35;0.77;;;11.80;99.90;;;;;;4971115;28;20039;-71
2022/09/26 08:39:35;;;;;;;7.80;0.90;;;11.80;99.90;;;;;;4972994;28;20089;-70
2022/09/26 08:42:27;;;;;;;4.03;0.90;;;11.80;99.90;;;;;;4975593;28;20043;-70
2022/09/26 08:46:27;;;;;;;5.43;1.20;;;11.80;99.90;;;;;;4974466;28;20128;-70
2022/09/26 08:48:05;;;;;;;4.35;1.17;;;11.80;99.90;;;;;;4969088;28;20038;-72
2022/09/26 08:50:43;;;;;;;5.07;1.75;;;11.80;99.90;;;;;;4972489;28;20069;-69
2022/09/26 08:53:15;;;;;;;9.60;1.73;;;11.80;99.90;;;;;;4970243;28;20077;-70
2022/09/26 08:55:43;;;;;;;7.55;0.90;;;11.70;99.90;;;;;;4972531;28;20502;-70
2022/09/26 08:58:19;;;;;;;5.70;1.33;;;11.70;99.90;;;;;;4971725;28;20043;-71
2022/09/26 09:00:48;;;;;;;2.70;1.20;;;11.70;99.90;;;;;;4971537;28;20042;-70
2022/09/26 09:03:27;;;;;;;2.50;1.20;;;11.70;99.90;;;;;;4963213;28;20110;-70
2022/09/26 09:06:06;;;;;;;2.77;1.60;;;11.70;99.90;;;;;;4976796;28;20038;-71
2022/09/26 09:08:38;;;;;;;4.93;0.90;;;11.70;99.90;;;;;;4966787;28;20049;-70
2022/09/26 09:11:17;;;;;;;6.18;1.10;;;11.80;99.90;;;;;;4965114;28;20045;-69
2022/09/26 09:13:54;;;;;;;3.80;1.15;;;11.80;99.90;;;;;;4976331;28;20034;-71
2022/09/26 09:16:43;;;;;;;4.78;0.90;;;11.80;99.90;;;;;;4965990;28;20042;-71
2022/09/26 09:19:27;;;;;;;5.30;1.13;;;11.80;99.90;;;;;;4976298;28;20038;-70
2022/09/26 09:22:27;;;;;;;2.78;1.02;;;11.90;99.90;;;;;;4970477;28;20121;-68
2022/09/26 09:24:59;;;;;;;6.75;1.25;;;11.90;99.90;;;;;;4970480;28;20526;-71
2022/09/26 09:27:51;;;;;;;11.75;1.20;;;11.90;99.90;;;;;;4966862;28;20451;-70
2022/09/26 09:30:16;;;;;;;5.10;1.50;;;12.00;99.90;;;;;;4964473;28;20046;-70
2022/09/26 09:32:59;;;;;;;6.38;1.30;;;12.00;99.90;;;;;;4968964;28;20035;-72
2022/09/26 09:35:42;;;;;;;2.70;1.15;;;12.00;99.90;;;;;;4970595;28;20042;-71
2022/09/26 09:38:25;;;;;;;4.82;1.10;;;12.00;99.90;;;;;;4971365;28;20041;-70
2022/09/26 09:40:51;;;;;;;5.57;1.70;;;12.00;99.90;;;;;;4962354;28;20045;-71
2022/09/26 09:43:46;;;;;;;7.72;1.35;;;12.00;99.90;;;;;;4961721;28;20034;-69
2022/09/26 09:46:18;;;;;;;4.43;1.05;;;12.00;99.90;;;;;;4967339;28;20042;-71
2022/09/26 09:48:46;;;;;;;7.93;0.80;;;12.10;99.90;;;;;;4971678;28;20030;-71
2022/09/26 09:51:12;;;;;;;4.35;1.00;;;12.10;99.90;;;;;;4966548;28;20042;-71
2022/09/26 09:54:14;;;;;;;1.75;1.30;;;12.10;99.90;;;;;;4967084;28;20030;-70
2022/09/26 09:57:02;;;;;;;5.53;1.20;;;12.20;99.90;;;;;;4964662;28;20042;-70
2022/09/26 10:00:07;;;;;;;4.60;1.17;;;12.20;99.90;;;;;;4966033;28;20041;-70
2022/09/26 10:03:10;;;;;;;8.88;1.40;;;12.20;99.90;;;;;;4969900;28;20046;-70
2022/09/26 10:05:49;;;;;;;4.45;1.38;;;12.20;99.90;;;;;;4970884;28;20041;-70
2022/09/26 10:08:18;;;;;;;3.45;1.42;;;12.20;99.90;;;;;;4970612;28;20088;-70
2022/09/26 10:11:11;;;;;;;6.10;1.30;;;12.30;99.90;;;;;;4967844;28;20039;-70
2022/09/26 10:13:42;;;;;;;7.72;1.70;;;12.20;99.90;;;;;;4967959;28;20030;-70
2022/09/26 10:16:10;;;;;;;4.60;1.30;;;12.30;99.90;;;;;;4971520;28;20044;-70
2022/09/26 10:19:05;;;;;;;5.78;1.67;;;12.20;99.90;;;;;;4972338;28;20034;-70
2022/09/26 10:21:44;;;;;;;7.80;1.30;;;12.20;99.90;;;;;;4966397;28;20054;-70
2022/09/26 10:24:33;;;;;;;4.03;1.17;;;12.10;99.90;;;;;;4969708;28;20051;-70
2022/09/26 10:27:12;;;;;;;3.00;1.40;;;12.10;99.90;;;;;;4967125;28;20045;-68
2022/09/26 10:29:39;;;;;;;4.07;1.47;;;12.20;99.90;;;;;;4965942;28;20023;-69
2022/09/26 10:32:05;;;;;;;7.20;1.40;;;12.10;99.90;;;;;;4969097;28;20511;-70
2022/09/26 10:34:38;;;;;;;3.95;1.25;;;12.20;99.90;;;;;;4966681;28;20045;-71
2022/09/26 10:37:24;;;;;;;6.60;1.95;;;12.20;99.90;;;;;;4970922;28;20063;-70
2022/09/26 10:42:40;;;;;;;6.17;1.30;;;12.20;99.90;;;;;;4965227;28;20549;-69
2022/09/26 10:45:28;;;;;;;3.97;1.50;;;12.20;99.90;;;;;;4966268;28;20046;-69
2022/09/26 10:47:55;;;;;;;5.28;1.70;;;12.10;99.90;;;;;;4964309;28;20049;-71
2022/09/26 10:50:26;;;;;;;7.10;1.80;;;12.10;99.90;;;;;;4966942;28;20062;-71
2022/09/26 10:53:02;;;;;;;5.65;1.80;;;12.10;99.90;;;;;;4961211;28;20043;-69
2022/09/26 10:55:39;;;;;;;5.50;1.52;;;12.20;99.90;;;;;;4966256;28;20043;-69
2022/09/26 10:58:13;;;;;;;5.25;1.83;;;12.10;99.90;;;;;;4964498;28;20517;-70
2022/09/26 11:00:50;;;;;;;4.38;1.52;;;12.20;99.90;;;;;;4965485;28;20042;-71
2022/09/26 11:03:20;;;;;;;4.72;1.75;;;12.20;99.90;;;;;;4961352;28;20506;-70
2022/09/26 11:05:56;;;;;;;5.85;1.98;;;12.20;99.90;;;;;;4966440;28;20038;-70
2022/09/26 11:08:30;;;;;;;3.38;1.50;;;12.30;99.90;;;;;;4969989;28;20061;-69
2022/09/26 11:10:58;;;;;;;3.17;1.73;;;12.20;99.90;;;;;;4966573;28;20101;-72
2022/09/26 11:13:31;;;;;;;2.92;1.60;;;12.20;99.90;;;;;;4967335;28;20035;-71
2022/09/26 11:16:11;;;;;;;7.28;1.55;;;12.20;99.90;;;;;;4970395;28;20404;-69
2022/09/26 11:18:50;;;;;;;3.65;1.63;;;12.30;99.90;;;;;;4970843;28;20110;-69
2022/09/26 11:21:46;;;;;;;7.72;1.80;;;12.30;99.90;;;;;;4969783;28;20494;-71
2022/09/26 11:24:36;;;;;;;5.32;1.50;;;12.30;99.90;;;;;;4964510;28;20035;-71
2022/09/26 11:27:29;;;;;;;2.15;1.48;;;12.30;99.90;;;;;;4964790;28;20078;-69
2022/09/26 11:29:57;;;;;;;4.63;1.60;;;12.30;99.90;;;;;;4972412;28;20062;-71
2022/09/26 11:32:37;;;;;;;4.20;1.70;;;12.30;99.90;;;;;;4970820;28;20055;-69
2022/09/26 11:35:03;;;;;;;3.33;1.53;;;12.40;99.90;;;;;;4968989;28;20510;-71
2022/09/26 11:37:55;;;;;;;3.17;1.58;;;12.30;99.90;;;;;;4967166;28;20289;-69
2022/09/26 11:40:48;;;;;;;2.65;1.15;;;12.40;99.90;;;;;;4968803;28;20711;-69
2022/09/26 11:43:51;;;;;;;3.67;1.45;;;12.40;99.90;;;;;;4966694;28;20051;-70
2022/09/26 11:46:22;;;;;;;4.30;1.60;;;12.40;99.90;;;;;;4970351;28;20046;-70
2022/09/26 11:49:22;;;;;;;3.92;1.50;;;12.40;99.90;;;;;;4964806;28;20050;-70
2022/09/26 11:52:00;;;;;;;5.65;1.35;;;12.50;99.90;;;;;;4965630;28;20526;-69
2022/09/26 11:54:38;;;;;;;4.63;1.50;;;12.40;99.90;;;;;;4966975;28;20101;-72
2022/09/26 11:57:31;;;;;;;5.95;2.03;;;12.40;99.90;;;;;;4969093;28;20048;-71
2022/09/26 12:00:05;;;;;;;4.88;2.25;;;12.50;99.90;;;;;;4969343;28;20122;-71
2022/09/26 12:02:53;;;;;;;2.13;1.60;;;12.50;99.90;;;;;;4966988;28;20042;-72
2022/09/26 12:05:33;;;;;;;1.98;1.75;;;12.50;99.90;;;;;;4968076;28;20043;-71
2022/09/26 12:08:07;;;;;;;3.20;1.55;;;12.60;99.90;;;;;;4971323;28;20516;-69
2022/09/26 12:11:14;;;;;;;4.00;1.60;;;12.50;99.90;;;;;;4967257;28;20073;-71
2022/09/26 12:13:46;;;;;;;5.78;2.00;;;12.60;99.90;;;;;;4962861;28;20069;-70
2022/09/26 12:16:45;;;;;;;5.47;1.88;;;12.60;99.90;;;;;;4966096;28;20066;-71
2022/09/26 12:19:41;;;;;;;2.28;1.50;;;12.60;99.90;;;;;;4964883;28;20570;-70
2022/09/26 12:22:27;;;;;;;2.67;1.75;;;12.70;99.90;;;;;;4965406;28;20046;-71
2022/09/26 12:25:10;;;;;;;2.25;1.80;;;12.60;99.90;;;;;;4965272;28;20540;-71
2022/09/26 12:28:00;;;;;;;2.67;1.40;;;12.60;99.90;;;;;;4966756;28;20026;-71
2022/09/26 12:30:50;;;;;;;;;;;12.70;99.90;;;;;;4967303;28;20138;-70
2022/09/26 12:33:31;;;;;;;2.27;1.70;;;12.70;99.90;;;;;;4964722;28;20398;-72
2022/09/26 12:36:25;;;;;;;3.35;1.70;;;12.70;99.90;;;;;;4970585;28;20050;-70
2022/09/26 12:39:19;;;;;;;4.40;1.48;;;12.60;99.90;;;;;;4968508;28;20769;-71
2022/09/26 12:42:05;;;;;;;3.08;1.73;;;12.60;99.90;;;;;;4967827;28;20060;-68
2022/09/26 12:44:56;;;;;;;2.45;1.73;;;12.60;99.90;;;;;;4970535;28;20121;-69
2022/09/26 12:47:25;;;;;;;2.92;1.92;;;12.50;99.90;;;;;;4967810;28;20529;-70
2022/09/26 12:50:05;;;;;;;2.90;1.48;;;12.60;99.90;;;;;;4972932;28;20034;-71
2022/09/26 12:53:18;;;;;;;4.68;1.48;;;12.60;99.90;;;;;;4973639;28;20086;-70
2022/09/26 12:56:08;;;;;;;1.63;1.15;;;12.60;99.90;;;;;;4964387;28;20145;-71
2022/09/26 12:59:05;;;;;;;1.83;0.85;;;12.60;99.90;;;;;;4971729;28;20045;-71
2022/09/26 13:01:57;;;;;;;2.92;1.63;;;12.70;99.90;;;;;;4967928;28;20101;-70
2022/09/26 13:04:53;;;;;;;3.38;1.13;;;12.70;99.90;;;;;;4970599;28;20045;-70
2022/09/26 13:07:42;;;;;;;1.30;1.02;;;12.80;99.90;;;;;;4969912;28;20463;-70
2022/09/26 13:10:14;;;;;;;2.90;1.42;;;12.80;99.90;;;;;;4974577;28;20188;-71
2022/09/26 13:13:05;;;;;;;4.00;1.38;;;12.80;99.90;;;;;;4969548;28;20113;-71
2022/09/26 13:16:12;;;;;;;2.25;1.13;;;12.80;99.90;;;;;;4968985;28;20085;-70
2022/09/26 13:18:44;;;;;;;2.67;1.00;;;12.90;99.90;;;;;;4971843;28;20039;-71
2022/09/26 13:21:25;;;;;;;2.05;1.05;;;12.90;99.90;;;;;;4973728;28;20034;-72
2022/09/26 13:23:58;;;;;;;3.00;0.70;;;12.90;99.90;;;;;;4976772;28;20481;-70
2022/09/26 13:26:43;;;;;;;1.02;0.60;;;13.00;99.90;;;;;;4971970;28;20043;-71
2022/09/26 13:29:19;;;;;;;2.40;0.60;;;13.00;99.90;;;;;;4975320;28;20034;-71
2022/09/26 13:31:59;;;;;;;3.53;0.90;;;13.00;99.90;;;;;;4975315;28;20086;-69
2022/09/26 13:34:28;;;;;;;1.30;0.70;;;13.10;99.90;;;;;;4976640;28;20030;-70
2022/09/26 13:36:58;;;;;;;1.77;0.45;;;13.20;99.90;;;;;;4972341;28;20118;-73
2022/09/26 13:39:44;;;;;;;4.43;0.60;;;13.30;99.90;;;;;;4973057;28;20486;-70
2022/09/26 13:42:16;;;;;;;2.92;0.60;;;13.40;99.90;;;;;;4976722;28;20302;-69